PWSweather.com
Personal Weather Stations
Station Observations
IONTARIO88
Lincoln, ON L0R

Lincoln, ON L0R

Lat: 43.1763563, Lon: -79.4719525

Elevation: 297

Station Type: Davis Vantage Pro 2 Plus

http://www.beamsvillewx.ca

Latest ConditionsUpdated 5:40:01 AM EDT Tuesday, Apr 21, 2015
Currently Today's Max Today's Min Today's Average
Temperature 45.8°F7.7°C 51.1°F10.6°C 45.8°F7.7°C 47.6°F8.7°C
Dew Point 41.2°F5.1°C 44.5°F6.9°C 41.2°F5.1°C 42.3°F5.7°C
Winds 5.6 mph SW9.0 kmh SW 7.2 mph SW11.6 kmh SW - 4.3 mph 6.9 kmh
Wind Gusts 12.0 mph19.3 kmh 12.0 mph19.3 kmh - -
Humidity 84% 86% 75% 82%
Pressure 29.55 in1000.7 mb 29.56 in1001.0 mb 29.51 in999.3 mb -
Hour Temp Dew Point Humidity Winds Wind Gusts Pressure Precip Precip Rate Daily Precip Total
05:40 AM 45.8°F7.7°C 41.2°F5.1°C 84% 5.6 mph SW9.0 kmh SW 12.0 mph19.3 kmh 29.55 in1000.7 mb - 0.00 in0.0 mm 0.00 in0.0 mm
05:30 AM 45.8°F7.7°C 41.2°F5.1°C 84% 5.7 mph SW9.2 kmh SW 6.0 mph9.7 kmh 29.55 in1000.7 mb - 0.00 in0.0 mm 0.00 in0.0 mm
05:20 AM 45.9°F7.7°C 41.6°F5.3°C 85% 3.3 mph SW5.3 kmh SW 7.0 mph11.3 kmh 29.55 in1000.7 mb - 0.00 in0.0 mm 0.00 in0.0 mm
05:10 AM 45.8°F7.7°C 41.5°F5.3°C 85% 7.2 mph SW11.6 kmh SW 9.0 mph14.5 kmh 29.56 in1001.0 mb - 0.00 in0.0 mm 0.00 in0.0 mm
05:00 AM 45.8°F7.7°C 41.9°F5.5°C 86% 4.6 mph SW7.4 kmh SW 10.0 mph16.1 kmh 29.56 in1001.0 mb - 0.00 in0.0 mm 0.00 in0.0 mm
04:50 AM 45.9°F7.7°C 42.0°F5.6°C 86% 3.5 mph SW5.6 kmh SW 6.0 mph9.7 kmh 29.55 in1000.7 mb - 0.00 in0.0 mm 0.00 in0.0 mm
04:40 AM 46.0°F7.8°C 42.0°F5.6°C 86% 3.8 mph SW6.1 kmh SW 8.0 mph12.9 kmh 29.56 in1001.0 mb - 0.00 in0.0 mm 0.00 in0.0 mm
04:30 AM 46.0°F7.8°C 42.0°F5.6°C 86% 5.3 mph SW8.5 kmh SW 9.0 mph14.5 kmh 29.56 in1001.0 mb - 0.00 in0.0 mm 0.00 in0.0 mm
04:20 AM 46.0°F7.8°C 42.0°F5.6°C 86% 5.2 mph WSW8.4 kmh WSW 11.0 mph17.7 kmh 29.56 in1001.0 mb - 0.00 in0.0 mm 0.00 in0.0 mm
04:10 AM 46.0°F7.8°C 42.0°F5.6°C 86% 4.2 mph SW6.8 kmh SW 5.0 mph8.0 kmh 29.56 in1001.0 mb - 0.00 in0.0 mm 0.00 in0.0 mm
03:50 AM 46.3°F7.9°C 42.3°F5.7°C 86% 3.5 mph SW5.6 kmh SW 8.0 mph12.9 kmh 29.56 in1001.0 mb - 0.00 in0.0 mm 0.00 in0.0 mm
03:40 AM 46.3°F7.9°C 42.4°F5.8°C 86% 1.6 mph SSW2.6 kmh SSW 9.0 mph14.5 kmh 29.56 in1001.0 mb - 0.00 in0.0 mm 0.00 in0.0 mm
03:30 AM 46.4°F8.0°C 42.4°F5.8°C 86% 3.6 mph SW5.8 kmh SW 6.0 mph9.7 kmh 29.56 in1001.0 mb - 0.00 in0.0 mm 0.00 in0.0 mm
03:20 AM 46.3°F7.9°C 42.0°F5.6°C 85% 4.6 mph SW7.4 kmh SW 9.0 mph14.5 kmh 29.56 in1001.0 mb - 0.00 in0.0 mm 0.00 in0.0 mm
03:10 AM 46.2°F7.9°C 41.9°F5.5°C 85% 4.9 mph SW7.9 kmh SW 9.0 mph14.5 kmh 29.56 in1001.0 mb - 0.00 in0.0 mm 0.00 in0.0 mm
03:00 AM 46.3°F7.9°C 42.0°F5.6°C 85% 5.5 mph SW8.9 kmh SW 11.0 mph17.7 kmh 29.56 in1001.0 mb - 0.00 in0.0 mm 0.00 in0.0 mm
02:50 AM 46.6°F8.1°C 42.1°F5.6°C 84% 4.4 mph SW7.1 kmh SW 8.0 mph12.9 kmh 29.56 in1001.0 mb - 0.00 in0.0 mm 0.00 in0.0 mm
02:40 AM 47.1°F8.4°C 42.2°F5.7°C 83% 3.0 mph SW4.8 kmh SW 5.0 mph8.0 kmh 29.56 in1001.0 mb - 0.00 in0.0 mm 0.00 in0.0 mm
02:30 AM 47.5°F8.6°C 42.3°F5.7°C 82% 2.3 mph SW3.7 kmh SW 7.0 mph11.3 kmh 29.56 in1001.0 mb - 0.00 in0.0 mm 0.00 in0.0 mm
02:20 AM 47.7°F8.7°C 42.2°F5.7°C 81% 3.2 mph SW5.1 kmh SW 7.0 mph11.3 kmh 29.56 in1001.0 mb - 0.00 in0.0 mm 0.00 in0.0 mm
02:10 AM 48.0°F8.9°C 42.4°F5.8°C 81% 1.0 mph SW1.6 kmh SW 2.0 mph3.2 kmh 29.56 in1001.0 mb - 0.00 in0.0 mm 0.00 in0.0 mm
02:00 AM 48.2°F9.0°C 42.3°F5.7°C 80% 3.2 mph SW5.1 kmh SW 3.0 mph4.8 kmh 29.56 in1001.0 mb - 0.00 in0.0 mm 0.00 in0.0 mm
01:50 AM 48.3°F9.1°C 42.4°F5.8°C 80% 5.0 mph SW8.0 kmh SW 7.0 mph11.3 kmh 29.56 in1001.0 mb - 0.00 in0.0 mm 0.00 in0.0 mm
01:40 AM 48.6°F9.2°C 42.4°F5.8°C 79% 3.0 mph SW4.8 kmh SW 5.0 mph8.0 kmh 29.55 in1000.7 mb - 0.00 in0.0 mm 0.00 in0.0 mm
01:30 AM 48.9°F9.4°C 42.0°F5.6°C 77% 3.8 mph WSW6.1 kmh WSW 6.0 mph9.7 kmh 29.55 in1000.7 mb - 0.00 in0.0 mm 0.00 in0.0 mm
01:20 AM 49.3°F9.6°C 42.1°F5.6°C 76% 4.3 mph SW6.9 kmh SW 7.0 mph11.3 kmh 29.55 in1000.7 mb - 0.00 in0.0 mm 0.00 in0.0 mm
01:10 AM 49.5°F9.7°C 42.2°F5.7°C 76% 4.9 mph WSW7.9 kmh WSW 8.0 mph12.9 kmh 29.54 in1000.3 mb - 0.00 in0.0 mm 0.00 in0.0 mm
01:00 AM 49.7°F9.8°C 42.4°F5.8°C 76% 5.5 mph WSW8.9 kmh WSW 11.0 mph17.7 kmh 29.54 in1000.3 mb - 0.00 in0.0 mm 0.00 in0.0 mm
12:50 AM 50.0°F10.0°C 42.7°F5.9°C 76% 5.9 mph W9.5 kmh W 8.0 mph12.9 kmh 29.53 in1000.0 mb - 0.00 in0.0 mm 0.00 in0.0 mm
12:40 AM 50.3°F10.2°C 42.7°F5.9°C 75% 6.5 mph W10.5 kmh W 10.0 mph16.1 kmh 29.52 in999.7 mb - 0.00 in0.0 mm 0.00 in0.0 mm
12:30 AM 50.5°F10.3°C 43.6°F6.4°C 77% 4.2 mph WSW6.8 kmh WSW 7.0 mph11.3 kmh 29.52 in999.7 mb - 0.00 in0.0 mm 0.00 in0.0 mm
12:20 AM 50.6°F10.3°C 44.0°F6.7°C 78% 6.0 mph WSW9.7 kmh WSW 11.0 mph17.7 kmh 29.51 in999.3 mb - 0.00 in0.0 mm 0.00 in0.0 mm
12:10 AM 50.7°F10.4°C 44.1°F6.7°C 78% 4.3 mph SW6.9 kmh SW 9.0 mph14.5 kmh 29.51 in999.3 mb - 0.00 in0.0 mm 0.00 in0.0 mm
12:00 AM 51.1°F10.6°C 44.5°F6.9°C 78% 4.8 mph WSW7.7 kmh WSW 6.0 mph9.7 kmh 29.51 in999.3 mb - 0.00 in0.0 mm 0.00 in0.0 mm